createdAt,value
2019-04-20T00:01:31.724Z,8.08
2019-04-20T00:03:59.323Z,7.40
2019-04-20T00:06:31.667Z,7.73
2019-04-20T00:09:10.335Z,8.00
2019-04-20T00:11:49.391Z,7.73
2019-04-20T00:14:15.402Z,8.30
2019-04-20T00:16:42.026Z,7.77
2019-04-20T00:19:17.327Z,7.65
2019-04-20T00:21:56.429Z,8.00
2019-04-20T00:24:33.635Z,8.05
2019-04-20T00:27:22.136Z,7.90
2019-04-20T00:29:52.381Z,7.97
2019-04-20T00:32:18.869Z,7.85
2019-04-20T00:34:43.636Z,8.00
2019-04-20T00:37:12.941Z,8.25
2019-04-20T00:39:44.761Z,7.80
2019-04-20T00:42:17.885Z,8.45
2019-04-20T00:44:57.633Z,8.17
2019-04-20T00:47:34.210Z,8.33
2019-04-20T00:50:06.568Z,8.30
2019-04-20T00:52:45.226Z,8.23
2019-04-20T00:55:00.123Z,8.10
2019-04-20T00:57:41.784Z,8.70
2019-04-20T01:00:23.109Z,8.23
2019-04-20T01:02:49.524Z,8.47
2019-04-20T01:05:37.898Z,8.43
2019-04-20T01:08:09.435Z,7.93
2019-04-20T01:10:47.266Z,9.00
2019-04-20T01:13:19.815Z,8.35
2019-04-20T01:15:55.167Z,8.87
2019-04-20T01:18:20.057Z,8.60
2019-04-20T01:20:51.460Z,8.73
2019-04-20T01:23:29.128Z,9.05
2019-04-20T01:26:01.831Z,9.13
2019-04-20T01:28:47.402Z,8.60
2019-04-20T01:31:17.757Z,9.33
2019-04-20T01:33:49.196Z,8.97
2019-04-20T01:36:35.079Z,8.93
2019-04-20T01:38:57.839Z,8.95
2019-04-20T01:41:18.220Z,8.95
2019-04-20T01:43:50.191Z,8.90
2019-04-20T01:46:28.025Z,9.73
2019-04-20T01:49:00.201Z,8.97
2019-04-20T01:51:37.331Z,9.63
2019-04-20T01:54:26.092Z,9.10
2019-04-20T01:56:58.058Z,9.30
2019-04-20T01:59:44.055Z,9.45
2019-04-20T02:02:24.463Z,9.60
2019-04-20T02:05:11.357Z,8.67
2019-04-20T02:07:40.000Z,9.33
2019-04-20T02:10:09.780Z,9.33
2019-04-20T02:12:42.279Z,9.47
2019-04-20T02:15:20.052Z,10.18
2019-04-20T02:17:59.359Z,10.50
2019-04-20T02:20:37.597Z,10.10
2019-04-20T02:23:06.562Z,10.73
2019-04-20T02:25:24.925Z,9.70
2019-04-20T02:28:14.783Z,10.07
2019-04-20T02:31:10.484Z,9.83
2019-04-20T02:33:47.422Z,10.07
2019-04-20T02:36:25.070Z,9.55
2019-04-20T02:41:57.531Z,9.35
2019-04-20T02:46:55.686Z,9.73
2019-04-20T02:49:33.126Z,9.17
2019-04-20T02:51:55.906Z,9.80
2019-04-20T02:57:05.326Z,10.23
2019-04-20T02:59:54.057Z,10.00
2019-04-20T03:01:55.231Z,10.33
2019-04-20T03:04:20.247Z,9.90
2019-04-20T03:07:01.037Z,9.50
2019-04-20T03:09:36.211Z,9.83
2019-04-20T03:12:10.846Z,9.40
2019-04-20T03:14:35.218Z,10.25
2019-04-20T03:17:15.538Z,10.03
2019-04-20T03:19:40.902Z,10.38
2019-04-20T03:22:24.645Z,9.70
2019-04-20T03:24:54.017Z,9.50
2019-04-20T03:27:46.208Z,9.80
2019-04-20T03:33:44.584Z,10.30
2019-04-20T03:36:07.936Z,10.55
2019-04-20T03:38:26.288Z,10.30
2019-04-20T03:40:50.693Z,10.37
2019-04-20T03:43:12.287Z,9.83
2019-04-20T03:45:51.756Z,10.17
2019-04-20T03:48:35.902Z,9.75
2019-04-20T03:51:07.283Z,10.20
2019-04-20T03:53:43.566Z,9.75
2019-04-20T03:56:34.392Z,11.20
2019-04-20T03:59:20.182Z,10.10
2019-04-20T04:02:25.173Z,9.90
2019-04-20T04:05:03.332Z,10.30
2019-04-20T04:07:19.543Z,10.20
2019-04-20T04:10:02.470Z,9.80
2019-04-20T04:13:09.602Z,9.53
2019-04-20T04:15:48.765Z,10.20
2019-04-20T04:18:23.009Z,9.30
2019-04-20T04:20:54.071Z,10.30
2019-04-20T04:23:36.671Z,10.15
2019-04-20T04:26:08.513Z,9.63
2019-04-20T04:28:43.302Z,10.00
2019-04-20T04:31:22.953Z,10.13
2019-04-20T04:33:59.354Z,10.63
2019-04-20T04:36:20.842Z,10.65
2019-04-20T04:39:05.449Z,11.20
2019-04-20T04:41:31.079Z,10.63
2019-04-20T04:44:04.510Z,11.43
2019-04-20T04:48:49.221Z,10.80
2019-04-20T04:56:21.451Z,10.93
2019-04-20T05:02:03.375Z,10.43
2019-04-20T05:04:58.510Z,11.13
2019-04-20T05:07:23.021Z,11.70
2019-04-20T05:12:21.492Z,12.25
2019-04-20T05:22:39.758Z,11.50
2019-04-20T05:30:33.606Z,11.97
2019-04-20T05:33:09.162Z,11.70
2019-04-20T05:36:00.912Z,11.53
2019-04-20T05:38:39.779Z,11.53
2019-04-20T05:41:04.626Z,11.90
2019-04-20T05:43:38.605Z,11.40
2019-04-20T05:46:18.407Z,11.87
2019-04-20T05:48:53.246Z,12.40
2019-04-20T05:51:26.907Z,12.30
2019-04-20T05:54:01.140Z,12.10
2019-04-20T05:56:33.074Z,12.90
2019-04-20T05:58:59.907Z,12.63
2019-04-20T06:01:42.480Z,13.83
2019-04-20T06:04:01.650Z,14.37
2019-04-20T06:06:40.411Z,13.95
2019-04-20T06:09:21.038Z,14.43
2019-04-20T06:11:56.280Z,13.90
2019-04-20T06:14:19.391Z,14.87
2019-04-20T06:17:10.805Z,13.97
2019-04-20T06:19:39.240Z,13.80
2019-04-20T06:53:41.205Z,11.63
2019-04-20T06:56:36.791Z,12.63
2019-04-20T07:02:03.947Z,12.10
2019-04-20T07:07:10.166Z,12.03
2019-04-20T07:14:32.891Z,11.57
2019-04-20T07:22:46.357Z,11.93
2019-04-20T07:30:24.111Z,12.23
2019-04-20T07:35:30.450Z,12.77
2019-04-20T07:40:28.801Z,13.40
2019-04-20T07:43:14.645Z,12.17
2019-04-20T07:46:11.743Z,12.70
2019-04-20T07:48:36.872Z,13.00
2019-04-20T07:51:04.827Z,13.10
2019-04-20T07:53:42.174Z,13.57
2019-04-20T07:56:25.377Z,12.63
2019-04-20T07:58:41.388Z,12.40
2019-04-20T08:01:43.129Z,12.47
2019-04-20T08:22:02.498Z,12.90
2019-04-20T08:28:39.172Z,13.40
2019-04-20T08:31:32.277Z,13.35
2019-04-20T08:36:57.108Z,12.80
2019-04-20T08:42:24.779Z,12.37
2019-04-20T08:45:08.369Z,12.30
2019-04-20T08:47:45.863Z,13.95
2019-04-20T08:53:17.360Z,13.50
2019-04-20T09:00:19.144Z,13.98
2019-04-20T09:05:30.276Z,13.28
2019-04-20T09:18:17.848Z,13.67
2019-04-20T09:23:36.373Z,14.20
2019-04-20T09:26:14.943Z,13.27
2019-04-20T09:32:33.254Z,14.60
2019-04-20T09:42:47.026Z,12.93
2019-04-20T09:45:31.139Z,12.85
2019-04-20T09:47:57.115Z,12.67
2019-04-20T09:53:17.328Z,13.63
2019-04-20T09:58:12.580Z,14.20
2019-04-20T10:03:16.722Z,14.75
2019-04-20T10:08:21.873Z,13.93
2019-04-20T10:13:25.075Z,14.00
2019-04-20T10:21:09.653Z,15.13
2019-04-20T10:23:48.235Z,14.70
2019-04-20T10:26:22.759Z,14.68
2019-04-20T10:28:57.377Z,13.70
2019-04-20T10:31:48.296Z,14.03
2019-04-20T10:34:15.697Z,13.50
2019-04-20T10:37:09.376Z,13.03
2019-04-20T10:42:14.380Z,13.80
2019-04-20T10:47:15.230Z,14.20
2019-04-20T10:52:17.857Z,14.00
2019-04-20T10:54:50.260Z,12.60
2019-04-20T10:57:21.674Z,13.58
2019-04-20T10:59:59.388Z,12.93
2019-04-20T11:02:35.133Z,13.07
2019-04-20T11:05:08.559Z,14.20
2019-04-20T11:11:01.300Z,12.97
2019-04-20T11:13:46.119Z,14.18
2019-04-20T11:16:24.703Z,14.25
2019-04-20T11:19:01.043Z,14.10
2019-04-20T11:21:34.354Z,12.43
2019-04-20T11:24:08.170Z,11.30
2019-04-20T11:26:41.445Z,11.90
2019-04-20T11:29:16.122Z,11.68
2019-04-20T11:31:51.536Z,10.70
2019-04-20T11:34:28.615Z,10.60
2019-04-20T11:36:52.986Z,10.77
2019-04-20T11:39:25.029Z,10.35
2019-04-20T11:41:56.194Z,10.60
2019-04-20T11:46:58.723Z,10.67
2019-04-20T11:49:31.064Z,9.77
2019-04-20T11:52:03.613Z,9.37
2019-04-20T11:54:34.993Z,9.10
2019-04-20T11:57:09.018Z,8.77
2019-04-20T11:59:39.338Z,9.00
2019-04-20T12:02:47.886Z,8.65
2019-04-20T12:05:28.136Z,8.55
2019-04-20T12:08:03.008Z,8.67
2019-04-20T12:13:14.454Z,9.13
2019-04-20T12:20:58.857Z,8.30
2019-04-20T12:28:43.373Z,9.38
2019-04-20T12:34:11.013Z,8.57
2019-04-20T12:39:31.407Z,8.93
2019-04-20T12:44:32.112Z,8.90
2019-04-20T12:49:37.862Z,9.37
2019-04-20T12:52:10.359Z,8.80
2019-04-20T12:54:44.527Z,8.98
2019-04-20T12:59:47.830Z,9.10
2019-04-20T13:02:19.672Z,8.93
2019-04-20T13:04:55.400Z,8.63
2019-04-20T13:09:54.837Z,9.70
2019-04-20T13:12:32.233Z,9.37
2019-04-20T13:15:26.649Z,9.30
2019-04-20T13:17:58.936Z,9.33
2019-04-20T13:20:30.324Z,9.13
2019-04-20T13:23:03.666Z,9.10
2019-04-20T13:25:35.012Z,9.40
2019-04-20T13:28:07.358Z,9.27
2019-04-20T13:30:39.769Z,9.20
2019-04-20T13:33:12.125Z,9.30
2019-04-20T13:35:44.195Z,8.80
2019-04-20T13:38:16.224Z,10.00
2019-04-20T13:43:17.605Z,9.45
2019-04-20T13:48:21.306Z,9.23
2019-04-20T13:53:23.398Z,8.98
2019-04-20T13:55:56.033Z,9.77
2019-04-20T13:58:45.712Z,9.60
2019-04-20T14:01:34.796Z,9.33
2019-04-20T14:04:05.352Z,9.23
2019-04-20T14:06:57.656Z,9.07
2019-04-20T14:09:30.654Z,10.30
2019-04-20T14:14:33.105Z,9.50
2019-04-20T14:19:34.827Z,9.77
2019-04-20T14:22:11.292Z,10.90
2019-04-20T14:27:12.991Z,11.10
2019-04-20T14:29:46.298Z,11.70
2019-04-20T14:32:18.816Z,10.13
2019-04-20T14:34:51.198Z,10.57
2019-04-20T14:37:24.800Z,18.92
2019-04-20T14:39:59.041Z,11.77
2019-04-20T14:42:40.380Z,10.90
2019-04-20T14:45:04.785Z,12.83
2019-04-20T14:47:36.176Z,11.33
2019-04-20T14:50:07.633Z,10.83
2019-04-20T14:52:39.695Z,11.03
2019-04-20T14:57:41.480Z,10.90
2019-04-20T15:00:37.958Z,10.88
2019-04-20T15:03:10.126Z,11.30
2019-04-20T15:10:40.583Z,11.07
2019-04-20T15:13:14.891Z,11.28
2019-04-20T15:18:15.555Z,10.60
2019-04-20T15:23:15.732Z,10.95
2019-04-20T15:28:18.657Z,10.88
2019-04-20T15:33:28.256Z,11.60
2019-04-20T15:36:04.236Z,11.63
2019-04-20T15:38:35.589Z,11.00
2019-04-20T15:41:08.762Z,11.37
2019-04-20T15:43:39.647Z,10.53
2019-04-20T15:48:40.240Z,10.77
2019-04-20T15:51:14.020Z,10.93
2019-04-20T15:53:47.429Z,10.20
2019-04-20T15:58:52.428Z,9.93
2019-04-20T16:01:28.178Z,9.80
2019-04-20T16:06:31.582Z,9.30
2019-04-20T16:11:35.170Z,9.40
2019-04-20T16:14:07.267Z,10.23
2019-04-20T16:16:38.464Z,9.83
2019-04-20T16:19:25.233Z,10.50
2019-04-20T16:21:43.678Z,9.10
2019-04-20T16:24:18.975Z,10.88
2019-04-20T16:27:13.737Z,9.67
2019-04-20T16:29:45.077Z,10.30
2019-04-20T16:32:16.501Z,10.40
2019-04-20T16:34:48.597Z,9.90
2019-04-20T16:37:20.240Z,10.30
2019-04-20T16:42:18.540Z,10.30
2019-04-20T16:44:49.724Z,10.30
2019-04-20T16:47:22.000Z,10.35
2019-04-20T16:49:53.325Z,9.90
2019-04-20T16:52:25.136Z,11.20
2019-04-20T16:54:57.626Z,10.80
2019-04-20T16:57:29.856Z,11.00
2019-04-20T17:00:03.103Z,10.53
2019-04-20T17:02:34.546Z,11.37
2019-04-20T17:05:07.276Z,16.57
2019-04-20T17:07:42.881Z,11.13
2019-04-20T17:10:16.015Z,10.93
2019-04-20T17:12:48.048Z,12.10
2019-04-20T17:15:21.467Z,11.63
2019-04-20T17:17:53.819Z,11.30
2019-04-20T17:20:28.982Z,10.80
2019-04-20T17:23:05.569Z,12.95
2019-04-20T17:25:35.163Z,16.07
2019-04-20T17:28:35.142Z,12.68
2019-04-20T17:31:19.958Z,10.90
2019-04-20T17:34:04.685Z,11.47
2019-04-20T17:36:30.931Z,10.67
2019-04-20T17:39:06.754Z,10.67
2019-04-20T17:41:59.283Z,11.00
2019-04-20T17:44:26.534Z,11.07
2019-04-20T17:46:52.136Z,11.80
2019-04-20T17:49:28.119Z,11.15
2019-04-20T17:52:12.240Z,10.87
2019-04-20T17:54:27.874Z,10.82
2019-04-20T17:57:00.272Z,10.37
2019-04-20T17:59:34.483Z,10.70
2019-04-20T18:03:00.636Z,9.87
2019-04-20T18:06:08.309Z,11.03
2019-04-20T18:08:39.482Z,10.60
2019-04-20T18:10:58.574Z,11.27
2019-04-20T18:13:27.615Z,11.05
2019-04-20T18:16:22.435Z,11.27
2019-04-20T18:19:07.739Z,11.00
2019-04-20T18:21:40.138Z,11.33
2019-04-20T18:24:15.786Z,16.87
2019-04-20T18:26:57.655Z,17.30
2019-04-20T18:29:37.272Z,16.93
2019-04-20T18:32:07.730Z,16.20
2019-04-20T18:34:57.249Z,16.23
2019-04-20T18:37:25.710Z,15.87
2019-04-20T18:40:03.925Z,16.40
2019-04-20T18:42:36.780Z,16.27
2019-04-20T18:45:21.656Z,17.57
2019-04-20T18:47:56.332Z,18.33
2019-04-20T18:50:19.480Z,19.63
2019-04-20T18:52:43.639Z,21.40
2019-04-20T18:55:23.500Z,19.77
2019-04-20T18:57:49.038Z,20.67
2019-04-20T19:00:26.165Z,21.25
2019-04-20T19:02:57.763Z,20.62
2019-04-20T19:05:27.883Z,21.03
2019-04-20T19:08:13.283Z,20.70
2019-04-20T19:11:00.041Z,22.43
2019-04-20T19:13:53.352Z,21.07
2019-04-20T19:16:59.741Z,21.50
2019-04-20T19:19:33.378Z,21.93
2019-04-20T19:21:56.254Z,21.20
2019-04-20T19:24:29.707Z,20.70
2019-04-20T19:27:06.639Z,19.17
2019-04-20T19:29:48.820Z,19.20
2019-04-20T19:32:24.967Z,17.57
2019-04-20T19:34:54.917Z,18.23
2019-04-20T19:37:24.255Z,21.40
2019-04-20T19:40:02.867Z,21.13
2019-04-20T19:42:34.678Z,20.80
2019-04-20T19:45:10.149Z,20.90
2019-04-20T19:47:42.952Z,19.20
2019-04-20T19:50:31.300Z,17.90
2019-04-20T19:52:57.820Z,17.60
2019-04-20T19:55:25.898Z,17.27
2019-04-20T19:57:56.615Z,17.13
2019-04-20T20:00:14.690Z,16.10
2019-04-20T20:02:46.076Z,16.60
2019-04-20T20:05:19.490Z,16.02
2019-04-20T20:07:56.509Z,17.47
2019-04-20T20:10:30.308Z,17.62
2019-04-20T20:13:00.371Z,17.60
2019-04-20T20:15:34.049Z,17.00
2019-04-20T20:18:23.134Z,15.57
2019-04-20T20:20:59.570Z,16.25
2019-04-20T20:23:27.948Z,15.83
2019-04-20T20:26:05.357Z,14.50
2019-04-20T20:28:57.799Z,13.70
2019-04-20T20:31:28.250Z,13.40
2019-04-20T20:34:10.912Z,13.60
2019-04-20T20:36:53.928Z,12.93
2019-04-20T20:39:24.138Z,12.10
2019-04-20T20:42:06.395Z,11.93
2019-04-20T20:44:37.806Z,12.13
2019-04-20T20:47:34.143Z,11.80
2019-04-20T20:50:21.987Z,13.77
2019-04-20T20:52:47.018Z,15.40
2019-04-20T20:55:19.478Z,18.40
2019-04-20T20:57:56.367Z,23.73
2019-04-20T21:00:38.825Z,29.43
2019-04-20T21:03:02.755Z,31.50
2019-04-20T21:05:45.356Z,31.07
2019-04-20T21:08:19.689Z,31.17
2019-04-20T21:11:15.208Z,25.60
2019-04-20T21:13:45.145Z,25.43
2019-04-20T21:16:19.716Z,20.05
2019-04-20T21:18:59.847Z,18.83
2019-04-20T21:21:36.066Z,17.55
2019-04-20T21:24:03.888Z,17.27
2019-04-20T21:26:35.747Z,15.20
2019-04-20T21:29:03.767Z,14.53
2019-04-20T21:31:36.491Z,15.13
2019-04-20T21:34:13.185Z,14.83
2019-04-20T21:36:41.093Z,14.83
2019-04-20T21:39:20.324Z,14.75
2019-04-20T21:41:54.848Z,15.43
2019-04-20T21:44:25.211Z,15.37
2019-04-20T21:46:54.954Z,15.23
2019-04-20T21:49:39.731Z,15.63
2019-04-20T21:52:03.520Z,15.17
2019-04-20T21:54:34.186Z,15.77
2019-04-20T21:57:09.525Z,16.07
2019-04-20T21:59:44.665Z,15.97
2019-04-20T22:02:20.797Z,16.70
2019-04-20T22:04:45.285Z,17.67
2019-04-20T22:07:16.523Z,18.25
2019-04-20T22:09:52.776Z,19.40
2019-04-20T22:12:20.435Z,21.45
2019-04-20T22:14:58.788Z,21.73
2019-04-20T22:17:30.965Z,22.30
2019-04-20T22:20:12.129Z,24.70
2019-04-20T22:22:50.928Z,27.15
2019-04-20T22:25:28.293Z,25.63
2019-04-20T22:27:40.452Z,26.17
2019-04-20T22:30:12.443Z,23.42
2019-04-20T22:32:46.975Z,21.73
2019-04-20T22:35:18.812Z,21.02
2019-04-20T22:38:01.123Z,18.87
2019-04-20T22:40:32.090Z,18.13
2019-04-20T22:43:02.029Z,17.87
2019-04-20T22:45:34.235Z,18.92
2019-04-20T22:48:09.037Z,20.37
2019-04-20T22:50:50.948Z,21.10
2019-04-20T22:53:22.685Z,22.48
2019-04-20T22:56:11.063Z,20.73
2019-04-20T22:58:33.580Z,20.63
2019-04-20T23:00:57.865Z,19.67
2019-04-20T23:03:25.160Z,18.73
2019-04-20T23:05:56.540Z,17.10
2019-04-20T23:08:28.753Z,17.27
2019-04-20T23:11:00.543Z,17.63
2019-04-20T23:13:36.914Z,17.07
2019-04-20T23:16:07.487Z,17.15
2019-04-20T23:18:40.296Z,17.57
2019-04-20T23:21:15.414Z,16.52
2019-04-20T23:23:43.926Z,17.17
2019-04-20T23:26:24.286Z,18.73
2019-04-20T23:28:52.528Z,19.37
2019-04-20T23:31:25.205Z,18.12
2019-04-20T23:33:56.011Z,16.53
2019-04-20T23:36:36.567Z,16.87
2019-04-20T23:39:02.936Z,18.20
2019-04-20T23:41:33.435Z,18.97
2019-04-20T23:44:23.119Z,19.70
2019-04-20T23:47:21.866Z,19.07
2019-04-20T23:50:12.084Z,17.23
2019-04-20T23:52:49.346Z,18.23
2019-04-20T23:55:04.948Z,18.63
2019-04-20T23:57:33.673Z,19.20
